createdAt,value
2022-11-13T00:00:13.403Z,27.39
2022-11-13T00:01:38.865Z,27.41
2022-11-13T00:02:13.008Z,27.90
2022-11-13T00:02:53.912Z,28.70
2022-11-13T00:03:35.958Z,28.75
2022-11-13T00:04:16.852Z,28.60
2022-11-13T00:04:56.893Z,28.64
2022-11-13T00:05:36.865Z,28.24
2022-11-13T00:06:18.916Z,27.96
2022-11-13T00:06:59.580Z,27.66
2022-11-13T00:07:39.876Z,28.69
2022-11-13T00:08:19.850Z,29.21
2022-11-13T00:09:00.930Z,30.74
2022-11-13T00:09:40.849Z,29.98
2022-11-13T00:10:21.888Z,29.40
2022-11-13T00:11:24.862Z,30.98
2022-11-13T00:12:04.897Z,31.00
2022-11-13T00:12:44.840Z,28.79
2022-11-13T00:13:32.860Z,28.30
2022-11-13T00:14:06.516Z,28.10
2022-11-13T00:14:53.849Z,28.10
2022-11-13T00:15:27.666Z,28.44
2022-11-13T00:16:18.849Z,28.83
2022-11-13T00:16:52.601Z,29.71
2022-11-13T00:17:41.869Z,29.13
2022-11-13T00:18:15.554Z,30.27
2022-11-13T00:18:56.843Z,30.13
2022-11-13T00:19:30.931Z,29.14
2022-11-13T00:20:05.511Z,29.29
2022-11-13T00:20:45.837Z,28.85
2022-11-13T00:21:27.169Z,28.66
2022-11-13T00:22:00.619Z,28.42
2022-11-13T00:22:40.840Z,28.20
2022-11-13T00:23:14.880Z,30.19
2022-11-13T00:23:49.027Z,30.23
2022-11-13T00:24:29.871Z,28.04
2022-11-13T00:25:03.872Z,26.90
2022-11-13T00:25:37.499Z,28.00
2022-11-13T00:26:26.832Z,28.63
2022-11-13T00:27:00.916Z,28.45
2022-11-13T00:27:34.803Z,27.02
2022-11-13T00:28:14.867Z,26.66
2022-11-13T00:28:48.892Z,25.56
2022-11-13T00:29:22.542Z,25.88
2022-11-13T00:30:03.850Z,26.33
2022-11-13T00:30:37.926Z,26.66
2022-11-13T00:31:14.207Z,27.71
2022-11-13T00:31:53.820Z,27.31
2022-11-13T00:32:27.860Z,27.30
2022-11-13T00:33:01.549Z,25.84
2022-11-13T00:34:09.040Z,25.41
2022-11-13T00:34:52.300Z,26.08
2022-11-13T00:35:32.861Z,25.50
2022-11-13T00:36:29.949Z,25.89
2022-11-13T00:37:09.844Z,26.61
2022-11-13T00:37:49.862Z,25.19
2022-11-13T00:38:30.029Z,26.76
2022-11-13T00:39:10.888Z,26.34
2022-11-13T00:39:53.417Z,27.34
2022-11-13T00:40:44.837Z,26.25
2022-11-13T00:41:18.517Z,27.19
2022-11-13T00:42:05.832Z,26.74
2022-11-13T00:42:39.549Z,27.44
2022-11-13T00:43:26.819Z,26.45
2022-11-13T00:44:00.487Z,26.06
2022-11-13T00:44:47.801Z,26.26
2022-11-13T00:45:21.538Z,25.50
2022-11-13T00:46:09.842Z,26.55
2022-11-13T00:46:43.496Z,26.36
2022-11-13T00:47:30.854Z,26.09
2022-11-13T00:48:04.658Z,26.17
2022-11-13T00:48:52.839Z,25.98
2022-11-13T00:49:26.495Z,23.66
2022-11-13T00:50:13.832Z,24.91
2022-11-13T00:50:47.937Z,25.96
2022-11-13T00:51:35.882Z,24.98
2022-11-13T00:52:09.580Z,23.64
2022-11-13T00:52:56.815Z,24.15
2022-11-13T00:53:30.552Z,24.92
2022-11-13T00:54:17.819Z,24.40
2022-11-13T00:54:51.523Z,24.91
2022-11-13T00:55:38.808Z,26.06
2022-11-13T00:56:12.466Z,26.00
2022-11-13T00:57:00.827Z,24.05
2022-11-13T00:57:34.685Z,25.34
2022-11-13T00:58:21.794Z,26.42
2022-11-13T00:58:55.509Z,26.10
2022-11-13T00:59:42.820Z,24.96
2022-11-13T01:00:16.935Z,25.42
2022-11-13T01:01:03.805Z,26.46
2022-11-13T01:01:37.521Z,25.24
2022-11-13T01:02:25.863Z,25.48
2022-11-13T01:03:00.031Z,25.81
2022-11-13T01:03:47.818Z,26.45
2022-11-13T01:04:21.807Z,25.85
2022-11-13T01:05:08.836Z,26.58
2022-11-13T01:05:44.764Z,25.88
2022-11-13T01:06:35.914Z,27.27
2022-11-13T01:07:09.576Z,26.83
2022-11-13T01:07:50.813Z,26.60
2022-11-13T01:08:25.009Z,27.19
2022-11-13T01:09:02.383Z,27.56
2022-11-13T01:09:43.777Z,25.46
2022-11-13T01:10:17.826Z,24.74
2022-11-13T01:10:53.745Z,25.19
2022-11-13T01:11:36.773Z,25.33
2022-11-13T01:12:16.920Z,26.70
2022-11-13T01:12:57.814Z,25.83
2022-11-13T01:13:37.809Z,26.92
2022-11-13T01:14:17.807Z,27.64
2022-11-13T01:14:57.931Z,26.75
2022-11-13T01:15:37.801Z,26.89
2022-11-13T01:16:19.827Z,25.96
2022-11-13T01:16:59.792Z,26.42
2022-11-13T01:17:39.805Z,27.20
2022-11-13T01:18:20.815Z,26.70
2022-11-13T01:19:01.900Z,25.84
2022-11-13T01:19:41.777Z,25.99
2022-11-13T01:20:22.820Z,25.35
2022-11-13T01:21:16.803Z,25.54
2022-11-13T01:21:56.828Z,25.89
2022-11-13T01:22:36.777Z,27.56
2022-11-13T01:23:17.827Z,25.39
2022-11-13T01:23:58.790Z,25.66
2022-11-13T01:24:38.795Z,24.29
2022-11-13T01:25:18.769Z,23.49
2022-11-13T01:25:58.795Z,24.04
2022-11-13T01:26:38.752Z,24.76
2022-11-13T01:27:18.826Z,25.66
2022-11-13T01:27:58.797Z,24.29
2022-11-13T01:28:39.852Z,24.56
2022-11-13T01:29:19.789Z,24.26
2022-11-13T01:30:00.802Z,24.26
2022-11-13T01:30:41.771Z,24.21
2022-11-13T01:31:25.927Z,24.84
2022-11-13T01:32:05.751Z,23.57
2022-11-13T01:32:45.818Z,23.85
2022-11-13T01:33:25.783Z,25.00
2022-11-13T01:34:06.806Z,23.10
2022-11-13T01:34:46.794Z,22.85
2022-11-13T01:35:26.800Z,24.17
2022-11-13T01:36:16.769Z,23.14
2022-11-13T01:36:56.816Z,24.25
2022-11-13T01:37:36.780Z,23.02
2022-11-13T01:38:16.775Z,22.26
2022-11-13T01:38:57.758Z,22.92
2022-11-13T01:39:38.807Z,22.61
2022-11-13T01:40:20.809Z,22.79
2022-11-13T01:41:00.904Z,22.46
2022-11-13T01:41:41.760Z,23.21
2022-11-13T01:42:21.819Z,21.51
2022-11-13T01:43:01.754Z,21.80
2022-11-13T01:43:44.802Z,22.10
2022-11-13T01:44:25.747Z,23.13
2022-11-13T01:45:07.797Z,23.80
2022-11-13T01:46:05.765Z,22.81
2022-11-13T01:46:58.850Z,22.27
2022-11-13T01:47:38.752Z,23.49
2022-11-13T01:48:19.813Z,22.58
2022-11-13T01:49:45.760Z,21.81
2022-11-13T01:50:26.784Z,22.84
2022-11-13T01:51:06.774Z,24.27
2022-11-13T01:51:53.760Z,22.91
2022-11-13T01:52:40.763Z,23.21
2022-11-13T01:53:20.809Z,21.64
2022-11-13T01:54:01.761Z,21.90
2022-11-13T01:54:47.787Z,23.46
2022-11-13T01:55:27.759Z,23.01
2022-11-13T01:56:15.806Z,21.41
2022-11-13T01:56:49.593Z,23.06
2022-11-13T01:57:37.736Z,22.85
2022-11-13T01:58:12.191Z,21.58
2022-11-13T01:59:07.735Z,21.50
2022-11-13T01:59:50.308Z,22.44
2022-11-13T02:00:36.755Z,22.29
2022-11-13T02:01:10.460Z,22.41
2022-11-13T02:01:51.826Z,22.56
2022-11-13T02:02:25.791Z,21.16
2022-11-13T02:02:59.524Z,20.91
2022-11-13T02:03:40.740Z,20.71
2022-11-13T02:04:14.787Z,20.96
2022-11-13T02:04:48.479Z,20.36
2022-11-13T02:05:28.724Z,20.60
2022-11-13T02:06:02.804Z,21.00
2022-11-13T02:06:51.552Z,20.81
2022-11-13T02:07:32.774Z,21.49
2022-11-13T02:08:06.799Z,20.65
2022-11-13T02:08:40.448Z,20.11
2022-11-13T02:09:24.731Z,20.73
2022-11-13T02:10:02.768Z,23.11
2022-11-13T02:10:36.432Z,22.90
2022-11-13T02:11:17.714Z,21.91
2022-11-13T02:11:52.751Z,21.10
2022-11-13T02:12:42.770Z,21.90
2022-11-13T02:13:22.778Z,21.59
2022-11-13T02:14:02.733Z,22.10
2022-11-13T02:14:46.773Z,20.75
2022-11-13T02:15:32.734Z,20.65
2022-11-13T02:16:14.780Z,20.09
2022-11-13T02:16:55.721Z,19.95
2022-11-13T02:17:58.734Z,21.73
2022-11-13T02:18:32.864Z,20.50
2022-11-13T02:19:28.730Z,20.42
2022-11-13T02:20:04.917Z,19.99
2022-11-13T02:21:07.735Z,18.25
2022-11-13T02:21:59.060Z,19.21
2022-11-13T02:22:48.726Z,20.11
2022-11-13T02:23:50.752Z,20.29
2022-11-13T02:24:45.549Z,20.34
2022-11-13T02:25:26.756Z,21.45
2022-11-13T02:26:07.861Z,21.81
2022-11-13T02:26:48.736Z,21.46
2022-11-13T02:27:46.841Z,23.24
2022-11-13T02:28:28.014Z,22.73
2022-11-13T02:29:14.731Z,22.48
2022-11-13T02:29:48.435Z,21.70
2022-11-13T02:30:40.717Z,21.58
2022-11-13T02:31:14.956Z,20.79
2022-11-13T02:32:01.734Z,21.42
2022-11-13T02:32:35.408Z,21.24
2022-11-13T02:33:43.726Z,21.88
2022-11-13T02:34:23.727Z,21.44
2022-11-13T02:35:03.759Z,21.56
2022-11-13T02:35:44.705Z,21.66
2022-11-13T02:36:28.903Z,22.84
2022-11-13T02:37:15.708Z,22.29
2022-11-13T02:37:49.747Z,21.76
2022-11-13T02:38:37.722Z,21.79
2022-11-13T02:39:16.865Z,21.14
2022-11-13T02:39:57.716Z,20.23
2022-11-13T02:40:39.785Z,21.10
2022-11-13T02:41:19.701Z,23.06
2022-11-13T02:41:59.768Z,22.89
2022-11-13T02:42:39.697Z,21.58
2022-11-13T02:43:19.739Z,20.80
2022-11-13T02:43:59.693Z,20.89
2022-11-13T02:44:39.753Z,21.58
2022-11-13T02:45:20.741Z,22.02
2022-11-13T02:46:00.753Z,23.25
2022-11-13T02:46:42.699Z,22.91
2022-11-13T02:47:22.748Z,21.27
2022-11-13T02:48:03.740Z,21.00
2022-11-13T02:48:43.736Z,21.48
2022-11-13T02:49:23.739Z,21.42
2022-11-13T02:50:03.773Z,22.56
2022-11-13T02:50:44.700Z,23.50
2022-11-13T02:51:24.752Z,22.42
2022-11-13T02:52:04.755Z,21.99
2022-11-13T02:52:44.828Z,21.36
2022-11-13T02:53:25.695Z,22.75
2022-11-13T02:54:05.747Z,23.99
2022-11-13T02:54:45.679Z,24.14
2022-11-13T02:55:25.811Z,21.02
2022-11-13T02:56:06.700Z,22.58
2022-11-13T02:56:46.759Z,22.13
2022-11-13T02:57:26.683Z,21.24
2022-11-13T02:58:06.747Z,21.77
2022-11-13T02:58:46.688Z,23.19
2022-11-13T02:59:26.732Z,22.63
2022-11-13T03:00:10.694Z,22.36
2022-11-13T03:00:53.738Z,23.41
2022-11-13T03:01:34.807Z,22.99
2022-11-13T03:02:14.732Z,20.73
2022-11-13T03:02:55.685Z,20.77
2022-11-13T03:05:05.395Z,23.19
2022-11-13T03:05:35.729Z,23.24
2022-11-13T03:06:15.689Z,22.06
2022-11-13T03:06:55.861Z,22.51
2022-11-13T03:07:29.753Z,21.84
2022-11-13T03:08:16.672Z,23.10
2022-11-13T03:08:50.761Z,24.30
2022-11-13T03:09:37.668Z,23.30
2022-11-13T03:10:12.757Z,22.80
2022-11-13T03:11:00.679Z,23.23
2022-11-13T03:11:34.757Z,23.92
2022-11-13T03:12:16.699Z,24.24
2022-11-13T03:12:56.718Z,24.19
2022-11-13T03:13:36.675Z,23.86
2022-11-13T03:14:16.737Z,23.20
2022-11-13T03:14:56.664Z,23.81
2022-11-13T03:15:36.729Z,24.41
2022-11-13T03:16:20.672Z,22.27
2022-11-13T03:17:00.703Z,23.13
2022-11-13T03:17:41.712Z,23.61
2022-11-13T03:18:21.787Z,23.83
2022-11-13T03:19:03.672Z,23.91
2022-11-13T03:19:43.754Z,23.61
2022-11-13T03:20:24.656Z,23.36
2022-11-13T03:21:04.715Z,22.40
2022-11-13T03:21:44.659Z,23.35
2022-11-13T03:22:24.913Z,24.40
2022-11-13T03:23:05.662Z,24.55
2022-11-13T03:23:46.832Z,21.50
2022-11-13T03:24:27.726Z,21.63
2022-11-13T03:25:10.695Z,23.66
2022-11-13T03:25:50.669Z,22.71
2022-11-13T03:26:30.752Z,22.54
2022-11-13T03:27:10.663Z,23.05
2022-11-13T03:27:50.697Z,23.60
2022-11-13T03:28:31.660Z,22.96
2022-11-13T03:29:11.695Z,22.45
2022-11-13T03:29:51.642Z,23.36
2022-11-13T03:30:31.730Z,23.71
2022-11-13T03:31:12.660Z,22.70
2022-11-13T03:31:52.713Z,22.25
2022-11-13T03:32:32.668Z,22.98
2022-11-13T03:33:12.696Z,22.14
2022-11-13T03:33:53.731Z,23.10
2022-11-13T03:34:33.734Z,23.60
2022-11-13T03:35:15.642Z,23.11
2022-11-13T03:35:55.752Z,22.00
2022-11-13T03:36:35.643Z,21.81
2022-11-13T03:37:15.695Z,22.66
2022-11-13T03:37:56.655Z,22.09
2022-11-13T03:38:36.716Z,21.94
2022-11-13T03:39:17.676Z,21.70
2022-11-13T03:39:57.696Z,22.04
2022-11-13T03:40:37.678Z,21.64
2022-11-13T03:41:17.801Z,21.89
2022-11-13T03:41:57.639Z,22.59
2022-11-13T03:42:37.680Z,22.14
2022-11-13T03:43:17.630Z,21.45
2022-11-13T03:43:57.744Z,22.08
2022-11-13T03:44:38.660Z,22.54
2022-11-13T03:45:18.705Z,22.51
2022-11-13T03:45:58.674Z,21.41
2022-11-13T03:46:38.688Z,21.40
2022-11-13T03:47:18.648Z,22.99
2022-11-13T03:47:58.701Z,22.11
2022-11-13T03:48:38.628Z,22.77
2022-11-13T03:49:18.707Z,22.04
2022-11-13T03:49:59.660Z,23.48
2022-11-13T03:50:45.238Z,23.35
2022-11-13T03:51:25.661Z,22.58
2022-11-13T03:52:05.679Z,22.40
2022-11-13T03:52:45.628Z,24.33
2022-11-13T03:53:25.693Z,24.81
2022-11-13T03:54:06.625Z,23.08
2022-11-13T03:54:46.673Z,23.51
2022-11-13T03:55:27.651Z,22.24
2022-11-13T03:56:07.668Z,21.13
2022-11-13T03:56:47.643Z,21.34
2022-11-13T03:57:27.731Z,21.02
2022-11-13T03:58:07.644Z,21.16
2022-11-13T03:58:49.702Z,20.96
2022-11-13T03:59:29.624Z,21.34
2022-11-13T04:00:14.659Z,21.36
2022-11-13T04:00:55.653Z,21.46
2022-11-13T04:01:35.704Z,19.98
2022-11-13T04:02:15.627Z,19.42
2022-11-13T04:02:55.676Z,19.27
2022-11-13T04:03:35.644Z,19.49
2022-11-13T04:04:15.778Z,19.74
2022-11-13T04:04:55.642Z,19.58
2022-11-13T04:05:35.669Z,18.50
2022-11-13T04:06:16.656Z,18.73
2022-11-13T04:06:56.695Z,17.29
2022-11-13T04:07:36.611Z,18.25
2022-11-13T04:08:16.696Z,19.21
2022-11-13T04:08:56.605Z,17.19
2022-11-13T04:09:36.663Z,17.02
2022-11-13T04:10:16.614Z,16.64
2022-11-13T04:10:56.679Z,17.67
2022-11-13T04:11:37.644Z,16.98
2022-11-13T04:12:17.656Z,16.73
2022-11-13T04:12:57.610Z,17.23
2022-11-13T04:13:37.684Z,17.44
2022-11-13T04:14:17.598Z,17.84
2022-11-13T04:14:57.738Z,16.94
2022-11-13T04:15:37.596Z,17.13
2022-11-13T04:16:17.677Z,16.19
2022-11-13T04:16:58.649Z,16.45
2022-11-13T04:17:38.674Z,17.04
2022-11-13T04:18:18.619Z,17.58
2022-11-13T04:18:58.675Z,16.56
2022-11-13T04:19:38.599Z,16.19
2022-11-13T04:20:18.631Z,17.55
2022-11-13T04:20:58.611Z,18.33
2022-11-13T04:21:38.636Z,16.90
2022-11-13T04:22:19.625Z,16.64
2022-11-13T04:23:00.665Z,17.79
2022-11-13T04:23:40.611Z,17.45
2022-11-13T04:24:20.674Z,17.10
2022-11-13T04:25:00.608Z,17.70
2022-11-13T04:25:40.672Z,17.25
2022-11-13T04:26:20.595Z,18.51
2022-11-13T04:27:01.638Z,19.30
2022-11-13T04:27:42.607Z,19.15
2022-11-13T04:28:22.656Z,20.08
2022-11-13T04:29:02.627Z,20.26
2022-11-13T04:29:42.646Z,19.73
2022-11-13T04:30:22.608Z,18.89
2022-11-13T04:31:02.683Z,19.65
2022-11-13T04:31:42.584Z,20.04
2022-11-13T04:32:22.640Z,20.79
2022-11-13T04:33:03.607Z,18.50
2022-11-13T04:33:43.630Z,18.70
2022-11-13T04:34:23.586Z,19.11
2022-11-13T04:35:03.614Z,19.52
2022-11-13T04:35:44.599Z,18.91
2022-11-13T04:36:24.649Z,19.48
2022-11-13T04:37:04.609Z,20.55
2022-11-13T04:37:44.665Z,18.88
2022-11-13T04:38:25.764Z,18.61
2022-11-13T04:39:05.617Z,19.56
2022-11-13T04:39:45.613Z,18.14
2022-11-13T04:40:25.695Z,18.84
2022-11-13T04:41:24.595Z,19.86
2022-11-13T04:42:23.361Z,19.44
2022-11-13T04:43:03.601Z,18.89
2022-11-13T04:43:44.621Z,19.20
2022-11-13T04:44:18.632Z,19.35
2022-11-13T04:45:05.586Z,19.34
2022-11-13T04:45:39.621Z,19.86
2022-11-13T04:46:26.573Z,18.66
2022-11-13T04:47:00.600Z,19.24
2022-11-13T04:47:47.571Z,18.84
2022-11-13T04:48:21.617Z,19.26
2022-11-13T04:49:08.619Z,18.83
2022-11-13T04:49:42.650Z,19.21
2022-11-13T04:50:29.581Z,19.55
2022-11-13T04:51:03.659Z,19.46
2022-11-13T04:51:50.567Z,19.11
2022-11-13T04:52:24.620Z,20.06
2022-11-13T04:53:11.585Z,20.64
2022-11-13T04:53:45.615Z,19.40
2022-11-13T04:54:32.584Z,19.66
2022-11-13T04:55:06.646Z,20.30
2022-11-13T04:55:53.585Z,19.17
2022-11-13T04:56:27.633Z,19.34
2022-11-13T04:57:14.594Z,19.10
2022-11-13T04:57:51.467Z,19.70
2022-11-13T04:58:38.591Z,19.86
2022-11-13T04:59:12.639Z,20.70
2022-11-13T04:59:53.583Z,19.56
2022-11-13T05:00:33.615Z,20.45
2022-11-13T05:01:13.553Z,19.75
2022-11-13T05:01:55.535Z,18.25
2022-11-13T05:02:35.576Z,18.70
2022-11-13T05:03:15.636Z,17.96
2022-11-13T05:03:55.588Z,19.34
2022-11-13T05:04:35.614Z,19.99
2022-11-13T05:05:16.590Z,18.60
2022-11-13T05:05:56.669Z,19.46
2022-11-13T05:06:36.612Z,19.38
2022-11-13T05:07:16.637Z,20.39
2022-11-13T05:07:56.556Z,20.34
2022-11-13T05:08:36.640Z,19.88
2022-11-13T05:09:17.570Z,20.06
2022-11-13T05:09:57.607Z,19.38
2022-11-13T05:10:38.620Z,19.41
2022-11-13T05:11:18.694Z,19.54
2022-11-13T05:11:58.546Z,17.85
2022-11-13T05:12:38.625Z,18.29
2022-11-13T05:13:18.546Z,18.70
2022-11-13T05:14:03.204Z,18.42
2022-11-13T05:14:45.573Z,18.34
2022-11-13T05:15:26.590Z,18.13
2022-11-13T05:16:13.571Z,19.24
2022-11-13T05:16:53.630Z,19.20
2022-11-13T05:17:33.556Z,19.75
2022-11-13T05:18:13.604Z,19.99
2022-11-13T05:18:54.545Z,19.27
2022-11-13T05:19:34.650Z,18.98
2022-11-13T05:20:15.540Z,18.49
2022-11-13T05:20:55.632Z,19.93
2022-11-13T05:21:36.580Z,19.16
2022-11-13T05:22:16.609Z,19.34
2022-11-13T05:22:56.558Z,19.06
2022-11-13T05:23:36.663Z,20.85
2022-11-13T05:24:18.544Z,20.80
2022-11-13T05:24:58.622Z,21.04
2022-11-13T05:25:38.542Z,21.94
2022-11-13T05:26:20.572Z,20.04
2022-11-13T05:27:01.547Z,18.65
2022-11-13T05:27:41.588Z,19.81
2022-11-13T05:28:21.573Z,20.71
2022-11-13T05:29:05.713Z,21.05
2022-11-13T05:29:46.552Z,21.24
2022-11-13T05:30:26.603Z,21.30
2022-11-13T05:31:33.539Z,20.44
2022-11-13T05:32:20.568Z,20.11
2022-11-13T05:33:14.533Z,20.61
2022-11-13T05:34:08.605Z,21.60
2022-11-13T05:35:02.549Z,22.29
2022-11-13T05:35:56.546Z,23.94
2022-11-13T05:36:50.547Z,22.45
2022-11-13T05:37:37.565Z,22.77
2022-11-13T05:38:11.573Z,23.30
2022-11-13T05:38:59.536Z,22.48
2022-11-13T05:39:33.594Z,21.02
2022-11-13T05:40:20.511Z,21.52
2022-11-13T05:40:54.638Z,21.64
2022-11-13T05:41:41.552Z,20.73
2022-11-13T05:42:15.595Z,21.00
2022-11-13T05:43:03.561Z,21.29
2022-11-13T05:43:37.574Z,21.69
2022-11-13T05:44:24.525Z,22.91
2022-11-13T05:44:58.576Z,22.16
2022-11-13T05:45:45.512Z,21.94
2022-11-13T05:46:28.634Z,22.05
2022-11-13T05:47:15.545Z,22.17
2022-11-13T05:47:50.355Z,20.66
2022-11-13T05:48:31.846Z,20.46
2022-11-13T05:49:12.567Z,21.24
2022-11-13T05:49:52.531Z,22.11
2022-11-13T05:50:32.649Z,22.94
2022-11-13T05:51:17.544Z,23.63
2022-11-13T05:51:57.578Z,22.84
2022-11-13T05:52:38.516Z,24.90
2022-11-13T05:53:18.565Z,25.13
2022-11-13T05:54:00.552Z,24.52
2022-11-13T05:54:40.562Z,24.05
2022-11-13T05:55:23.374Z,24.84
2022-11-13T05:56:21.601Z,24.40
2022-11-13T05:57:01.503Z,24.52
2022-11-13T05:57:41.571Z,24.65
2022-11-13T05:58:21.500Z,24.94
2022-11-13T05:59:09.538Z,24.16
2022-11-13T06:00:03.514Z,25.34
2022-11-13T06:00:57.529Z,25.10
2022-11-13T06:01:53.577Z,23.69
2022-11-13T06:02:48.527Z,25.55
2022-11-13T06:03:42.524Z,25.04
2022-11-13T06:04:29.534Z,23.84
2022-11-13T06:05:03.560Z,24.00
2022-11-13T06:05:50.484Z,23.09
2022-11-13T06:06:27.552Z,22.42
2022-11-13T06:07:14.591Z,22.31
2022-11-13T06:07:48.561Z,23.19
2022-11-13T06:08:36.523Z,23.59
2022-11-13T06:09:13.006Z,24.71
2022-11-13T06:09:52.516Z,24.70
2022-11-13T06:10:32.560Z,23.26
2022-11-13T06:11:16.532Z,24.46
2022-11-13T06:11:56.571Z,23.54
2022-11-13T06:12:37.516Z,23.99
2022-11-13T06:13:17.568Z,23.45
2022-11-13T06:13:58.511Z,23.38
2022-11-13T06:14:38.542Z,23.52
2022-11-13T06:15:18.560Z,24.41
2022-11-13T06:15:58.550Z,25.49
2022-11-13T06:16:44.499Z,23.61
2022-11-13T06:17:24.538Z,25.31
2022-11-13T06:18:04.492Z,25.52
2022-11-13T06:18:45.576Z,25.56
2022-11-13T06:19:25.484Z,24.74
2022-11-13T06:20:05.599Z,25.25
2022-11-13T06:20:45.515Z,26.10
2022-11-13T06:21:30.859Z,26.63
2022-11-13T06:22:10.519Z,25.89
2022-11-13T06:22:50.537Z,25.74
2022-11-13T06:23:30.492Z,26.06
2022-11-13T06:24:11.554Z,26.01
2022-11-13T06:24:51.492Z,24.99
2022-11-13T06:25:31.516Z,25.17
2022-11-13T06:26:19.508Z,25.67
2022-11-13T06:26:59.539Z,26.80
2022-11-13T06:27:39.483Z,28.67
2022-11-13T06:28:20.544Z,28.17
2022-11-13T06:29:01.494Z,26.81
2022-11-13T06:29:41.575Z,27.41
2022-11-13T06:30:21.471Z,27.58
2022-11-13T06:31:01.512Z,26.77
2022-11-13T06:31:43.497Z,26.63
2022-11-13T06:32:23.523Z,27.01
2022-11-13T06:33:03.497Z,28.41
2022-11-13T06:33:45.578Z,28.39
2022-11-13T06:34:25.484Z,29.02
2022-11-13T06:35:05.523Z,28.29
2022-11-13T06:35:45.481Z,27.74
2022-11-13T06:36:28.711Z,27.95
2022-11-13T06:37:08.492Z,27.90
2022-11-13T06:37:48.501Z,29.25
2022-11-13T06:38:28.687Z,29.02
2022-11-13T06:39:13.712Z,29.10
2022-11-13T06:39:53.497Z,29.24
2022-11-13T06:40:33.537Z,28.52
2022-11-13T06:41:18.477Z,28.56
2022-11-13T06:41:58.513Z,29.67
2022-11-13T06:42:38.494Z,30.83
2022-11-13T06:43:18.514Z,31.65
2022-11-13T06:44:02.787Z,31.94
2022-11-13T06:44:43.500Z,31.70
2022-11-13T06:45:23.474Z,30.88
2022-11-13T06:46:04.893Z,30.61
2022-11-13T06:46:44.467Z,30.92
2022-11-13T06:47:24.544Z,32.08
2022-11-13T06:48:04.505Z,31.38
2022-11-13T06:48:44.616Z,31.05
2022-11-13T06:49:24.459Z,31.40
2022-11-13T06:50:04.507Z,31.24
2022-11-13T06:50:48.280Z,30.94
2022-11-13T06:51:33.906Z,31.39
2022-11-13T06:52:14.472Z,30.77
2022-11-13T06:52:54.527Z,31.30
2022-11-13T06:53:35.487Z,29.02
2022-11-13T06:54:15.502Z,29.77
2022-11-13T06:54:55.467Z,31.08
2022-11-13T06:55:35.496Z,29.85
2022-11-13T06:56:16.625Z,29.80
2022-11-13T06:56:56.512Z,30.63
2022-11-13T06:57:36.440Z,30.98
2022-11-13T06:58:16.490Z,30.88
2022-11-13T06:58:57.503Z,31.35
2022-11-13T06:59:37.533Z,32.26
2022-11-13T07:00:18.460Z,31.50
2022-11-13T07:00:59.520Z,31.21
2022-11-13T07:01:39.551Z,32.30
2022-11-13T07:02:20.488Z,32.83
2022-11-13T07:03:00.440Z,31.00
2022-11-13T07:03:40.545Z,30.96
2022-11-13T07:04:21.460Z,31.98
2022-11-13T07:04:55.181Z,31.58
2022-11-13T07:05:42.463Z,32.97
2022-11-13T07:06:20.114Z,33.75
2022-11-13T07:07:07.501Z,34.36
2022-11-13T07:07:41.161Z,33.47
2022-11-13T07:08:29.793Z,33.13
2022-11-13T07:09:04.233Z,32.67
2022-11-13T07:09:45.464Z,32.99
2022-11-13T07:10:19.473Z,33.92
2022-11-13T07:10:56.638Z,34.91
2022-11-13T07:11:36.431Z,34.24
2022-11-13T07:12:12.519Z,34.39
2022-11-13T07:12:49.405Z,34.74
2022-11-13T07:13:34.448Z,33.38
2022-11-13T07:14:08.467Z,34.44
2022-11-13T07:14:42.124Z,37.55
2022-11-13T07:15:23.474Z,37.01
2022-11-13T07:15:57.493Z,35.73
2022-11-13T07:17:08.087Z,36.56
2022-11-13T07:17:38.535Z,36.74
2022-11-13T07:18:25.747Z,36.28
2022-11-13T07:19:00.495Z,37.01
2022-11-13T07:19:47.474Z,37.88
2022-11-13T07:20:21.552Z,37.34
2022-11-13T07:21:01.477Z,36.80
2022-11-13T07:21:41.511Z,36.03
2022-11-13T07:22:21.430Z,35.88
2022-11-13T07:23:06.505Z,35.59
2022-11-13T07:23:49.440Z,37.46
2022-11-13T07:24:29.493Z,37.80
2022-11-13T07:25:09.439Z,37.61
2022-11-13T07:25:49.538Z,36.64
2022-11-13T07:26:30.450Z,35.17
2022-11-13T07:27:10.478Z,36.26
2022-11-13T07:27:53.442Z,37.53
2022-11-13T07:28:33.547Z,35.63
2022-11-13T07:29:13.428Z,34.40
2022-11-13T07:29:53.479Z,34.08
2022-11-13T07:30:34.426Z,35.92
2022-11-13T07:31:16.571Z,36.05
2022-11-13T07:31:56.456Z,37.35
2022-11-13T07:32:37.095Z,38.11
2022-11-13T07:33:17.508Z,37.29
2022-11-13T07:33:57.603Z,36.40
2022-11-13T07:34:38.426Z,37.83
2022-11-13T07:35:20.515Z,37.51
2022-11-13T07:36:04.423Z,38.66
2022-11-13T07:36:44.596Z,40.45
2022-11-13T07:37:25.431Z,38.88
2022-11-13T07:38:06.492Z,41.50
2022-11-13T07:38:46.429Z,41.53
2022-11-13T07:39:28.469Z,38.95
2022-11-13T07:40:09.466Z,38.66
2022-11-13T07:40:49.484Z,37.36
2022-11-13T07:41:30.447Z,36.14
2022-11-13T07:42:11.619Z,36.85
2022-11-13T07:42:52.433Z,36.79
2022-11-13T07:43:33.468Z,37.76
2022-11-13T07:44:27.262Z,38.41
2022-11-13T07:45:14.553Z,36.70
2022-11-13T07:46:00.433Z,37.53
2022-11-13T07:46:40.458Z,38.76
2022-11-13T07:47:20.416Z,38.67
2022-11-13T07:48:16.468Z,39.30
2022-11-13T07:49:10.411Z,37.97
2022-11-13T07:50:10.748Z,37.83
2022-11-13T07:51:06.455Z,37.91
2022-11-13T07:52:00.446Z,38.15
2022-11-13T07:52:55.425Z,37.15
2022-11-13T07:53:36.445Z,37.54
2022-11-13T07:54:16.493Z,40.38
2022-11-13T07:54:56.392Z,40.91
2022-11-13T07:55:36.693Z,41.74
2022-11-13T07:56:23.003Z,40.25
2022-11-13T07:57:04.527Z,39.41
2022-11-13T07:57:45.414Z,41.20
2022-11-13T07:58:25.551Z,42.08
2022-11-13T07:59:05.431Z,42.05
2022-11-13T07:59:47.504Z,41.26
2022-11-13T08:00:28.471Z,40.88
2022-11-13T08:01:12.486Z,42.81
2022-11-13T08:01:53.387Z,44.53
2022-11-13T08:02:34.437Z,42.97
2022-11-13T08:03:18.398Z,41.92
2022-11-13T08:03:58.478Z,42.01
2022-11-13T08:04:40.437Z,43.25
2022-11-13T08:05:21.452Z,43.06
2022-11-13T08:06:11.402Z,45.22
2022-11-13T08:06:52.549Z,44.30
2022-11-13T08:07:32.396Z,43.46
2022-11-13T08:08:13.464Z,44.51
2022-11-13T08:08:56.411Z,42.99
2022-11-13T08:09:36.414Z,44.53
2022-11-13T08:10:17.417Z,43.46
2022-11-13T08:10:58.515Z,43.04
2022-11-13T08:11:39.387Z,44.47
2022-11-13T08:12:19.447Z,44.53
2022-11-13T08:13:12.396Z,43.90
2022-11-13T08:13:52.507Z,44.29
2022-11-13T08:14:32.394Z,47.09
2022-11-13T08:15:13.784Z,47.28
2022-11-13T08:15:54.366Z,47.24
2022-11-13T08:16:49.395Z,44.03
2022-11-13T08:17:47.696Z,41.45
2022-11-13T08:18:43.392Z,41.86
2022-11-13T08:19:37.384Z,43.88
2022-11-13T08:20:31.381Z,43.13
2022-11-13T08:21:18.392Z,42.22
2022-11-13T08:21:52.478Z,43.17
2022-11-13T08:22:42.379Z,40.81
2022-11-13T08:23:16.404Z,40.46
2022-11-13T08:24:03.399Z,41.41
2022-11-13T08:24:37.430Z,43.17
2022-11-13T08:25:26.380Z,42.50
2022-11-13T08:26:00.441Z,42.28
2022-11-13T08:26:44.389Z,41.09
2022-11-13T08:27:30.250Z,41.08
2022-11-13T08:28:13.300Z,41.28
2022-11-13T08:28:54.476Z,42.16
2022-11-13T08:29:34.355Z,44.25
2022-11-13T08:30:16.617Z,44.35
2022-11-13T08:30:59.371Z,44.15
2022-11-13T08:31:39.425Z,41.78
2022-11-13T08:32:24.388Z,43.64
2022-11-13T08:33:04.499Z,44.81
2022-11-13T08:33:45.384Z,43.05
2022-11-13T08:34:25.424Z,43.54
2022-11-13T08:35:05.350Z,43.80
2022-11-13T08:35:45.422Z,43.45
2022-11-13T08:36:25.617Z,41.70
2022-11-13T08:37:06.406Z,41.15
2022-11-13T08:37:47.403Z,41.36
2022-11-13T08:38:27.857Z,42.29
2022-11-13T08:39:09.380Z,43.05
2022-11-13T08:39:49.410Z,43.78
2022-11-13T08:40:29.380Z,43.49
2022-11-13T08:41:11.983Z,44.09
2022-11-13T08:41:53.350Z,44.88
2022-11-13T08:42:35.468Z,44.42
2022-11-13T08:43:17.397Z,44.96
2022-11-13T08:43:58.408Z,45.01
2022-11-13T08:44:38.372Z,46.20
2022-11-13T08:45:20.443Z,43.95
2022-11-13T08:46:02.692Z,44.69
2022-11-13T08:46:42.398Z,45.00
2022-11-13T08:47:28.278Z,44.47
2022-11-13T08:48:11.417Z,42.10
2022-11-13T08:48:51.353Z,41.45
2022-11-13T08:49:31.455Z,41.24
2022-11-13T08:50:13.369Z,42.30
2022-11-13T08:50:53.404Z,42.09
2022-11-13T08:51:33.359Z,41.35
2022-11-13T08:52:13.396Z,40.88
2022-11-13T08:52:54.370Z,42.30
2022-11-13T08:53:34.459Z,42.81
2022-11-13T08:54:14.368Z,43.31
2022-11-13T08:54:57.501Z,42.72
2022-11-13T08:55:39.339Z,43.49
2022-11-13T08:56:19.962Z,45.46
2022-11-13T08:57:05.658Z,48.94